Airfield :
LOGIN :

Register | Disclaimer

   EN    FR    IT 

 










Legend :    VFR   Marginal VFR   IFR   Intensive IFR   Very Intensive IFR
Visi :
Ceiling :
>= 8 km
>= 3000ft
5 to 8 km
1000 to 3000 ft
1500m to 5 km
500 to 1000 ft
800 to 1500m
200 to 500 ft
< 800m
< 200 ft
Symbols :   Thunderstorms  Fog  Heavy snow  Heavy precipitations  Wind > 20 kt
SIGMETs :     Misc.  Thunderstorms  Icing  Turbulence  Mountain Waves  Volcanic Ashes






- Airport Elevation : 1306 ft
- IATA code : ACH


LSZR - Alten Rhein

CURRENT METAR :
  • 130350Z AUTO VRB02KT 9999 BKN021 BKN075 01/01 Q1028 RESN

EXPIRED METARs :
  • 130320Z AUTO VRB03KT 9999 -RASN FEW040 BKN045 BKN050 02/02 Q1028
  • 130250Z AUTO 05004KT 340V120 9999 -DZ FEW050 BKN060 BKN070 02/02 Q1028
  • 130220Z AUTO 21003KT 9999 SCT030 BKN036 01/01 Q1028 RESN
  • 130150Z AUTO 31009KT 9000 R10/1300U -SN BKN010 01/01 Q1028 RERASN
  • 130120Z AUTO VRB02KT 9999 -DZ BKN012 BKN014 BKN016 03/03 Q1028 RERASN

TAF TAF LSZR
Valid from the 13 at 03:00 until the 13 at 12:00 UTC


130225Z 1303/1312 21003KT 9999 SCT030 BKN035
ATIS : +41 71 858 51 66



MET'MAP, your aeronautical weather chart ! - Copyright ORBIFLY December 2007 - Disclaimer

ORBIFLY MET'MAP TEAM :

Programming & Development : Alexandra Zaïnal
Concept & original design : Baudouin d'Aumeries
Assistance for programming : Marc-Olivier Méhu
Technical & hardware support : Manuel Goepfert

Contact : metmap@orbifly.com




SOURCES & CREDITS :

   NOAA